Weather History for Quillayute, WA

Change the Weather History Date:

Sunday, December 1, 2013

  Actual Average Record
Temperature  
Mean Temperature 49 °F 41 °F  
Max Temperature 54 °F 47 °F 60 °F (1989)
Min Temperature 43 °F 36 °F 19 °F (2014)
Degree Days  
Heating Degree Days 16 24  
Month to date heating degree days 16 24  
Since 1 July heating degree days 1212 1738  
Cooling Degree Days 0 0  
Month to date cooling degree days 0 0  
Year to date cooling degree days 39 19  
Moisture  
Dew Point 47 °F    
Average Humidity 79    
Maximum Humidity 93    
Minimum Humidity 65    
Precipitation  
Precipitation 0.73 in 0.48 in 3.74 in (1977)
Month to date precipitation 0.73 0.48  
Year to date precipitation 83.21 87.03  
Sea Level Pressure  
Sea Level Pressure 29.91 in    
Wind  
Wind Speed 11 mph (WSW)    
Max Wind Speed 22 mph    
Max Gust Speed 32 mph    
Visibility 3 miles    
Events Rain    
T = Trace of Precipitation, MM = Missing Value Source: NWS Daily Summary

Daily Weather History Graph

Daily Weather History Graph

Search for Another Location

Airport:

Trip Planner

Search our weather history database for the weather conditions in past years. The results will help you decide how hot, cold, wet, or windy it might be!

Date:

Astronomy

Dec. 01, 2013 Rise Set
Actual Time 7:47 AM PST 4:27 PM PST
Civil Twilight 7:11 AM PST 5:02 PM PST
Nautical Twilight 6:32 AM PST 5:41 PM PST
Astronomical Twilight 5:55 AM PST 6:19 PM PST
Moon 6:06 AM PST (12/1) 3:46 PM PST (12/1)
Length of Visible Light 9h 51m
Length of Day
8h 40m
Waning Crescent, 2% of the Moon is Illuminated
Dec 1
Waning Crescent
Dec 2
New
Dec 9
First Quarter
Dec 17
Full
Dec 25
Last Quarter

Hourly Weather History & Observations

Time (PST) Temp. Windchill Dew Point Humidity Pressure Visibility Wind Dir Wind Speed Gust Speed Precip Events Conditions
12:05 AM 51.8 °F - 48.2 °F 88% 30.02 in 1.5 mi South 9.2 mph 18.4 mph 0.02 in Rain Light Rain
12:34 AM 51.8 °F - 48.2 °F 88% 30.00 in 1.2 mi South 5.8 mph - 0.09 in Rain Rain
12:48 AM 51.8 °F - 48.2 °F 88% 29.99 in 1.5 mi South 6.9 mph - 0.11 in Rain Light Rain
12:53 AM 52.0 °F - 48.9 °F 89% 29.99 in 1.2 mi Variable 6.9 mph - 0.12 in Rain Light Rain
1:53 AM 52.0 °F - 48.9 °F 89% 29.94 in 1.0 mi Variable 5.8 mph 17.3 mph 0.15 in Rain Rain
2:53 AM 53.1 °F - 50.0 °F 89% 29.91 in 1.0 mi SSW 9.2 mph 16.1 mph 0.10 in Rain Light Rain
3:01 AM 53.6 °F - 50.0 °F 88% 29.90 in 0.8 mi SW 9.2 mph 16.1 mph 0.02 in Rain Rain
3:05 AM 53.6 °F - 50.0 °F 88% 29.90 in 1.0 mi SW 12.7 mph 20.7 mph 0.02 in Rain Light Rain
3:49 AM 53.6 °F - 51.8 °F 94% 29.91 in 1.5 mi WSW 19.6 mph 27.6 mph 0.05 in Rain Light Rain
3:53 AM 54.0 °F - 51.1 °F 90% 29.91 in 1.8 mi WSW 17.3 mph 27.6 mph 0.05 in Rain Light Rain
4:07 AM 53.6 °F - 51.8 °F 94% 29.90 in 1.0 mi WSW 17.3 mph 31.1 mph 0.00 in Rain Light Rain
4:42 AM 53.6 °F - 50.0 °F 88% 29.90 in 1.5 mi WSW 15.0 mph 24.2 mph 0.00 in   Overcast
4:53 AM 53.1 °F - 50.0 °F 89% 29.91 in 1.5 mi West 13.8 mph 23.0 mph 0.00 in   Overcast
5:00 AM 53.6 °F - 50.0 °F 88% 29.91 in 1.0 mi West 17.3 mph 21.9 mph 0.01 in   Overcast
5:25 AM 53.6 °F - 50.0 °F 88% 29.92 in 2.0 mi West 13.8 mph 25.3 mph 0.01 in   Overcast
5:35 AM 53.6 °F - 50.0 °F 88% 29.91 in 4.0 mi West 16.1 mph 28.8 mph 0.01 in   Overcast
5:50 AM 53.6 °F - 50.0 °F 88% 29.92 in 5.0 mi West 17.3 mph 25.3 mph 0.01 in   Overcast
5:53 AM 53.1 °F - 50.0 °F 89% 29.93 in 5.0 mi West 17.3 mph 25.3 mph 0.01 in   Overcast
6:53 AM 53.1 °F - 48.9 °F 86% 29.96 in 4.0 mi West 11.5 mph - N/A   Overcast
7:53 AM 52.0 °F - 48.9 °F 89% 29.96 in 5.0 mi WSW 12.7 mph - N/A   Overcast
8:37 AM 51.8 °F - 48.2 °F 88% 29.97 in 2.0 mi WSW 11.5 mph 20.7 mph 0.00 in Rain Light Rain
8:44 AM 51.8 °F - 48.2 °F 88% 29.97 in 1.8 mi WSW 12.7 mph - 0.00 in Rain Light Rain
8:53 AM 52.0 °F - 48.9 °F 89% 29.97 in 1.2 mi WSW 10.4 mph - 0.01 in Rain Light Rain
9:08 AM 51.8 °F - 48.2 °F 88% 29.97 in 1.8 mi SW 12.7 mph - 0.00 in Rain Light Rain
9:18 AM 51.8 °F - 48.2 °F 88% 29.96 in 2.5 mi SW 10.4 mph - 0.00 in   Overcast
9:30 AM 51.8 °F - 48.2 °F 88% 29.96 in 3.0 mi SW 10.4 mph - 0.00 in Rain Light Rain
9:53 AM 53.1 °F - 48.9 °F 86% 29.97 in 3.0 mi SW 11.5 mph - 0.00 in   Overcast
10:15 AM 53.6 °F - 48.2 °F 82% 29.96 in 2.5 mi SW 12.7 mph - 0.00 in Rain Light Rain
10:22 AM 53.6 °F - 48.2 °F 82% 29.96 in 3.0 mi SW 11.5 mph 21.9 mph 0.00 in Rain Light Rain
10:31 AM 53.6 °F - 48.2 °F 82% 29.96 in 2.5 mi SW 13.8 mph 20.7 mph 0.00 in Rain Light Rain
10:51 AM 53.6 °F - 48.2 °F 82% 29.95 in 3.0 mi SW 13.8 mph 21.9 mph 0.01 in Rain Light Rain
10:53 AM 53.1 °F - 48.9 °F 86% 29.96 in 3.0 mi SW 11.5 mph 21.9 mph 0.01 in Rain Light Rain
11:04 AM 53.6 °F - 48.2 °F 82% 29.95 in 1.5 mi SW 12.7 mph 23.0 mph 0.00 in Rain Light Rain
11:10 AM 53.6 °F - 48.2 °F 82% 29.95 in 0.8 mi WSW 11.5 mph 21.9 mph 0.01 in Rain Light Rain
11:25 AM 53.6 °F - 50.0 °F 88% 29.94 in 1.5 mi WSW 15.0 mph - 0.03 in Rain Light Rain
11:34 AM 53.6 °F - 50.0 °F 88% 29.94 in 2.5 mi WSW 12.7 mph - 0.04 in Rain Light Rain
11:47 AM 53.6 °F - 50.0 °F 88% 29.94 in 1.2 mi WSW 17.3 mph 23.0 mph 0.05 in Rain Rain
11:53 AM 53.1 °F - 50.0 °F 89% 29.93 in 1.0 mi WSW 11.5 mph 23.0 mph 0.10 in Rain Heavy Rain
12:02 PM 53.6 °F - 50.0 °F 88% 29.92 in 2.0 mi SW 15.0 mph 24.2 mph 0.01 in Rain Light Rain
12:35 PM 53.6 °F - 48.2 °F 82% 29.92 in 3.0 mi WSW 16.1 mph 27.6 mph 0.03 in Rain Light Rain
12:53 PM 52.0 °F - 48.9 °F 89% 29.92 in 3.0 mi WSW 13.8 mph 25.3 mph 0.03 in Rain Light Rain
1:02 PM 51.8 °F - 48.2 °F 88% 29.91 in 2.5 mi WSW 13.8 mph 23.0 mph 0.01 in Rain Light Rain
1:15 PM 51.8 °F - 48.2 °F 88% 29.90 in 3.0 mi SW 10.4 mph - 0.02 in Rain Light Rain
1:22 PM 51.8 °F - 48.2 °F 88% 29.89 in 2.5 mi SW 11.5 mph 18.4 mph 0.02 in Rain Light Rain
1:28 PM 51.8 °F - 48.2 °F 88% 29.90 in 3.0 mi WSW 11.5 mph 18.4 mph 0.03 in Rain Light Rain
1:53 PM 52.0 °F - 48.0 °F 86% 29.89 in 4.0 mi SW 9.2 mph - 0.03 in   Overcast
2:17 PM 51.8 °F - 48.2 °F 88% 29.88 in 1.8 mi SW 13.8 mph 19.6 mph 0.01 in Rain Light Rain
2:25 PM 51.8 °F - 48.2 °F 88% 29.87 in 3.0 mi SW 9.2 mph 19.6 mph 0.01 in Rain Light Rain
2:32 PM 51.8 °F - 48.2 °F 88% 29.87 in 4.0 mi SW 10.4 mph - 0.01 in   Overcast
2:53 PM 52.0 °F - 48.0 °F 86% 29.86 in 4.0 mi SW 9.2 mph - 0.01 in   Overcast
3:44 PM 51.8 °F - 48.2 °F 88% 29.85 in 2.5 mi WSW 15.0 mph 20.7 mph 0.00 in Rain Light Rain
3:48 PM 51.8 °F - 48.2 °F 88% 29.84 in 1.8 mi SW 11.5 mph 19.6 mph 0.00 in Rain Light Rain
3:53 PM 52.0 °F - 48.9 °F 89% 29.85 in 1.2 mi WSW 13.8 mph 18.4 mph 0.00 in Rain Rain
3:58 PM 51.8 °F - 48.2 °F 88% 29.85 in 0.8 mi West 15.0 mph 20.7 mph 0.02 in Rain Rain
4:11 PM 51.8 °F - 46.4 °F 82% 29.84 in 1.5 mi West 13.8 mph 21.9 mph 0.08 in Rain Light Rain
4:15 PM 51.8 °F - 46.4 °F 82% 29.84 in 3.0 mi West 12.7 mph 21.9 mph 0.08 in Rain Light Rain
4:33 PM 50.0 °F - 46.4 °F 87% 29.84 in 6.0 mi West 12.7 mph - 0.08 in   Overcast
4:53 PM 50.0 °F - 46.0 °F 86% 29.85 in 5.0 mi WSW 11.5 mph - 0.08 in   Overcast
5:53 PM 48.0 °F - 43.0 °F 83% 29.84 in 6.0 mi West 8.1 mph - N/A   Haze
6:13 PM 46.4 °F 40.4 °F 42.8 °F 87% 29.85 in 2.5 mi West 13.8 mph 25.3 mph 0.02 in Rain Rain
6:20 PM 46.4 °F 41.5 °F 42.8 °F 87% 29.84 in 5.0 mi West 10.4 mph 19.6 mph 0.03 in Rain Light Rain
6:53 PM 46.9 °F - 42.1 °F 83% 29.83 in 5.0 mi WSW 10.4 mph - 0.03 in   Haze
7:39 PM 44.6 °F 38.1 °F 39.2 °F 81% 29.85 in 5.0 mi West 13.8 mph 31.1 mph 0.01 in Rain Light Rain
7:49 PM 44.6 °F 40.7 °F 39.2 °F 81% 29.85 in 7.0 mi West 6.9 mph 17.3 mph 0.01 in Rain Light Rain
7:53 PM 45.0 °F 40.1 °F 39.0 °F 80% 29.86 in 6.0 mi West 9.2 mph - 0.01 in   Haze
8:53 PM 45.0 °F 38.5 °F 36.0 °F 71% 29.87 in 6.0 mi West 13.8 mph 18.4 mph 0.00 in   Haze
9:53 PM 44.1 °F 38.6 °F 35.1 °F 71% 29.88 in 6.0 mi West 10.4 mph - 0.00 in   Haze
10:53 PM 44.1 °F 38.6 °F 33.1 °F 65% 29.88 in 6.0 mi West 10.4 mph 18.4 mph 0.00 in   Haze
11:53 PM 44.1 °F 37.7 °F 33.1 °F 65% 29.89 in 6.0 mi West 12.7 mph 21.9 mph N/A   Haze